sensor_id;sensor_type;location;lat;lon;timestamp;temperature;humidity
70366;DHT22;57787;48.216;12.396;2023-05-20T00:00:49;11.30;85.60
70366;DHT22;57787;48.216;12.396;2023-05-20T00:03:16;11.30;86.10
70366;DHT22;57787;48.216;12.396;2023-05-20T00:05:43;11.30;86.10
70366;DHT22;57787;48.216;12.396;2023-05-20T00:08:10;11.30;86.40
70366;DHT22;57787;48.216;12.396;2023-05-20T00:10:37;11.30;85.80
70366;DHT22;57787;48.216;12.396;2023-05-20T00:13:05;11.20;85.70
70366;DHT22;57787;48.216;12.396;2023-05-20T00:15:32;11.20;85.60
70366;DHT22;57787;48.216;12.396;2023-05-20T00:18:00;11.10;86.40
70366;DHT22;57787;48.216;12.396;2023-05-20T00:20:29;11.10;85.90
70366;DHT22;57787;48.216;12.396;2023-05-20T00:22:56;11.00;85.30
70366;DHT22;57787;48.216;12.396;2023-05-20T00:25:23;11.00;85.50
70366;DHT22;57787;48.216;12.396;2023-05-20T00:27:50;11.00;85.80
70366;DHT22;57787;48.216;12.396;2023-05-20T00:30:17;10.90;85.30
70366;DHT22;57787;48.216;12.396;2023-05-20T00:32:44;10.80;85.90
70366;DHT22;57787;48.216;12.396;2023-05-20T00:35:13;10.80;86.10
70366;DHT22;57787;48.216;12.396;2023-05-20T00:37:42;10.80;85.70
70366;DHT22;57787;48.216;12.396;2023-05-20T00:40:09;10.80;86.40
70366;DHT22;57787;48.216;12.396;2023-05-20T00:42:36;10.70;86.50
70366;DHT22;57787;48.216;12.396;2023-05-20T00:45:02;10.70;86.60
70366;DHT22;57787;48.216;12.396;2023-05-20T00:47:31;10.70;86.20
70366;DHT22;57787;48.216;12.396;2023-05-20T00:49:58;10.70;87.30
70366;DHT22;57787;48.216;12.396;2023-05-20T00:52:30;10.70;87.20
70366;DHT22;57787;48.216;12.396;2023-05-20T00:54:57;10.60;86.60
70366;DHT22;57787;48.216;12.396;2023-05-20T00:57:26;10.60;86.60
70366;DHT22;57787;48.216;12.396;2023-05-20T00:59:53;10.60;86.50
70366;DHT22;57787;48.216;12.396;2023-05-20T01:02:20;10.60;86.80
70366;DHT22;57787;48.216;12.396;2023-05-20T01:04:47;10.50;86.30
70366;DHT22;57787;48.216;12.396;2023-05-20T01:07:15;10.50;86.80
70366;DHT22;57787;48.216;12.396;2023-05-20T01:09:42;10.50;86.50
70366;DHT22;57787;48.216;12.396;2023-05-20T01:14:45;10.50;87.50
70366;DHT22;57787;48.216;12.396;2023-05-20T01:17:14;10.40;87.40
70366;DHT22;57787;48.216;12.396;2023-05-20T01:19:43;10.40;87.10
70366;DHT22;57787;48.216;12.396;2023-05-20T01:22:11;10.40;86.80
70366;DHT22;57787;48.216;12.396;2023-05-20T01:24:39;10.40;86.90
70366;DHT22;57787;48.216;12.396;2023-05-20T01:27:07;10.40;87.10
70366;DHT22;57787;48.216;12.396;2023-05-20T01:29:37;10.40;88.00
70366;DHT22;57787;48.216;12.396;2023-05-20T01:32:04;10.40;87.10
70366;DHT22;57787;48.216;12.396;2023-05-20T01:34:34;10.40;87.10
70366;DHT22;57787;48.216;12.396;2023-05-20T01:37:02;10.40;88.20
70366;DHT22;57787;48.216;12.396;2023-05-20T01:39:32;10.40;88.20
70366;DHT22;57787;48.216;12.396;2023-05-20T01:42:00;10.40;88.10
70366;DHT22;57787;48.216;12.396;2023-05-20T01:44:28;10.40;88.10
70366;DHT22;57787;48.216;12.396;2023-05-20T01:46:55;10.30;87.80
70366;DHT22;57787;48.216;12.396;2023-05-20T01:49:24;10.30;87.50
70366;DHT22;57787;48.216;12.396;2023-05-20T01:51:51;10.30;87.70
70366;DHT22;57787;48.216;12.396;2023-05-20T01:54:18;10.30;87.90
70366;DHT22;57787;48.216;12.396;2023-05-20T01:56:46;10.30;88.60
70366;DHT22;57787;48.216;12.396;2023-05-20T01:59:13;10.30;87.60
70366;DHT22;57787;48.216;12.396;2023-05-20T02:01:41;10.30;87.90
70366;DHT22;57787;48.216;12.396;2023-05-20T02:04:09;10.30;87.50
70366;DHT22;57787;48.216;12.396;2023-05-20T02:06:36;10.20;87.60
70366;DHT22;57787;48.216;12.396;2023-05-20T02:09:03;10.10;87.80
70366;DHT22;57787;48.216;12.396;2023-05-20T02:11:30;10.10;87.30
70366;DHT22;57787;48.216;12.396;2023-05-20T02:13:58;10.10;88.10
70366;DHT22;57787;48.216;12.396;2023-05-20T02:16:24;10.00;88.10
70366;DHT22;57787;48.216;12.396;2023-05-20T02:18:54;10.00;87.70
70366;DHT22;57787;48.216;12.396;2023-05-20T02:21:26;10.00;87.40
70366;DHT22;57787;48.216;12.396;2023-05-20T02:23:53;9.90;87.70
70366;DHT22;57787;48.216;12.396;2023-05-20T02:26:20;9.90;87.70
70366;DHT22;57787;48.216;12.396;2023-05-20T02:28:50;9.80;88.10
70366;DHT22;57787;48.216;12.396;2023-05-20T02:31:18;9.80;87.40
70366;DHT22;57787;48.216;12.396;2023-05-20T02:33:45;9.80;88.10
70366;DHT22;57787;48.216;12.396;2023-05-20T02:36:15;9.70;87.80
70366;DHT22;57787;48.216;12.396;2023-05-20T02:38:43;9.70;87.80
70366;DHT22;57787;48.216;12.396;2023-05-20T02:41:09;9.60;87.20
70366;DHT22;57787;48.216;12.396;2023-05-20T02:43:36;9.60;87.70
70366;DHT22;57787;48.216;12.396;2023-05-20T02:46:05;9.50;87.20
70366;DHT22;57787;48.216;12.396;2023-05-20T02:48:32;9.50;87.40
70366;DHT22;57787;48.216;12.396;2023-05-20T02:50:58;9.50;88.10
70366;DHT22;57787;48.216;12.396;2023-05-20T02:53:27;9.40;87.50
70366;DHT22;57787;48.216;12.396;2023-05-20T02:55:56;9.40;88.00
70366;DHT22;57787;48.216;12.396;2023-05-20T02:58:24;9.40;88.00
70366;DHT22;57787;48.216;12.396;2023-05-20T03:00:53;9.40;87.30
70366;DHT22;57787;48.216;12.396;2023-05-20T03:03:20;9.30;88.00
70366;DHT22;57787;48.216;12.396;2023-05-20T03:05:48;9.30;87.30
70366;DHT22;57787;48.216;12.396;2023-05-20T03:08:24;9.30;87.80
70366;DHT22;57787;48.216;12.396;2023-05-20T03:10:55;9.30;87.70
70366;DHT22;57787;48.216;12.396;2023-05-20T03:13:27;9.20;87.90
70366;DHT22;57787;48.216;12.396;2023-05-20T03:15:57;9.30;88.20
70366;DHT22;57787;48.216;12.396;2023-05-20T03:18:26;9.30;88.60
70366;DHT22;57787;48.216;12.396;2023-05-20T03:20:54;9.30;88.50
70366;DHT22;57787;48.216;12.396;2023-05-20T03:23:23;9.30;89.00
70366;DHT22;57787;48.216;12.396;2023-05-20T03:25:51;9.30;89.50
70366;DHT22;57787;48.216;12.396;2023-05-20T03:28:18;9.30;89.20
70366;DHT22;57787;48.216;12.396;2023-05-20T03:30:45;9.30;89.20
70366;DHT22;57787;48.216;12.396;2023-05-20T03:33:13;9.40;89.60
70366;DHT22;57787;48.216;12.396;2023-05-20T03:35:41;9.40;89.50
70366;DHT22;57787;48.216;12.396;2023-05-20T03:38:08;9.40;89.10
70366;DHT22;57787;48.216;12.396;2023-05-20T03:40:35;9.50;89.50
70366;DHT22;57787;48.216;12.396;2023-05-20T03:43:04;9.50;89.70
70366;DHT22;57787;48.216;12.396;2023-05-20T03:45:31;9.60;89.40
70366;DHT22;57787;48.216;12.396;2023-05-20T03:48:01;9.70;89.80
70366;DHT22;57787;48.216;12.396;2023-05-20T03:50:29;9.70;89.50
70366;DHT22;57787;48.216;12.396;2023-05-20T03:52:58;9.80;89.90
70366;DHT22;57787;48.216;12.396;2023-05-20T03:55:25;9.80;89.70
70366;DHT22;57787;48.216;12.396;2023-05-20T03:57:53;9.90;89.70
70366;DHT22;57787;48.216;12.396;2023-05-20T04:00:23;10.00;89.50
70366;DHT22;57787;48.216;12.396;2023-05-20T04:02:51;10.00;89.60
70366;DHT22;57787;48.216;12.396;2023-05-20T04:05:18;10.10;89.80
70366;DHT22;57787;48.216;12.396;2023-05-20T04:07:47;10.10;89.20
70366;DHT22;57787;48.216;12.396;2023-05-20T04:10:14;10.30;89.50
70366;DHT22;57787;48.216;12.396;2023-05-20T04:12:42;10.30;89.60
70366;DHT22;57787;48.216;12.396;2023-05-20T04:15:10;10.40;89.60
70366;DHT22;57787;48.216;12.396;2023-05-20T04:17:38;10.60;90.00
70366;DHT22;57787;48.216;12.396;2023-05-20T04:20:06;10.80;90.80
70366;DHT22;57787;48.216;12.396;2023-05-20T04:22:34;11.00;90.20
70366;DHT22;57787;48.216;12.396;2023-05-20T04:25:02;11.10;89.90
70366;DHT22;57787;48.216;12.396;2023-05-20T04:27:32;11.30;90.00
70366;DHT22;57787;48.216;12.396;2023-05-20T04:30:03;11.30;89.30
70366;DHT22;57787;48.216;12.396;2023-05-20T04:32:30;11.30;88.50
70366;DHT22;57787;48.216;12.396;2023-05-20T04:34:57;11.40;88.00
70366;DHT22;57787;48.216;12.396;2023-05-20T04:37:25;11.40;87.80
70366;DHT22;57787;48.216;12.396;2023-05-20T04:39:52;11.40;87.20
70366;DHT22;57787;48.216;12.396;2023-05-20T04:42:19;11.50;87.60
70366;DHT22;57787;48.216;12.396;2023-05-20T04:44:47;11.60;88.00
70366;DHT22;57787;48.216;12.396;2023-05-20T04:47:16;11.70;88.90
70366;DHT22;57787;48.216;12.396;2023-05-20T04:49:42;12.10;89.20
70366;DHT22;57787;48.216;12.396;2023-05-20T04:52:11;12.50;89.20
70366;DHT22;57787;48.216;12.396;2023-05-20T04:54:38;13.00;89.20
70366;DHT22;57787;48.216;12.396;2023-05-20T04:57:05;13.50;87.30
70366;DHT22;57787;48.216;12.396;2023-05-20T04:59:33;13.90;83.80
70366;DHT22;57787;48.216;12.396;2023-05-20T05:02:00;14.30;82.30
70366;DHT22;57787;48.216;12.396;2023-05-20T05:04:27;14.50;79.60
70366;DHT22;57787;48.216;12.396;2023-05-20T05:06:56;14.50;79.40
70366;DHT22;57787;48.216;12.396;2023-05-20T05:09:26;14.70;79.70
70366;DHT22;57787;48.216;12.396;2023-05-20T05:11:53;15.10;78.00
70366;DHT22;57787;48.216;12.396;2023-05-20T05:14:21;15.40;79.20
70366;DHT22;57787;48.216;12.396;2023-05-20T05:16:49;15.90;77.50
70366;DHT22;57787;48.216;12.396;2023-05-20T05:19:16;16.30;74.90
70366;DHT22;57787;48.216;12.396;2023-05-20T05:21:43;16.40;72.60
70366;DHT22;57787;48.216;12.396;2023-05-20T05:24:09;16.50;71.50
70366;DHT22;57787;48.216;12.396;2023-05-20T05:26:36;16.60;70.20
70366;DHT22;57787;48.216;12.396;2023-05-20T05:29:03;16.80;71.80
70366;DHT22;57787;48.216;12.396;2023-05-20T05:31:30;17.30;71.20
70366;DHT22;57787;48.216;12.396;2023-05-20T05:33:57;17.70;68.80
70366;DHT22;57787;48.216;12.396;2023-05-20T05:36:24;18.00;67.10
70366;DHT22;57787;48.216;12.396;2023-05-20T05:38:56;18.30;65.70
70366;DHT22;57787;48.216;12.396;2023-05-20T05:41:23;18.50;65.70
70366;DHT22;57787;48.216;12.396;2023-05-20T05:43:51;18.60;64.00
70366;DHT22;57787;48.216;12.396;2023-05-20T05:46:18;18.70;64.20
70366;DHT22;57787;48.216;12.396;2023-05-20T05:48:46;18.90;62.20
70366;DHT22;57787;48.216;12.396;2023-05-20T05:51:14;18.80;62.40
70366;DHT22;57787;48.216;12.396;2023-05-20T05:56:23;18.70;63.90
70366;DHT22;57787;48.216;12.396;2023-05-20T05:58:50;18.50;62.80
70366;DHT22;57787;48.216;12.396;2023-05-20T06:01:17;18.60;62.30
70366;DHT22;57787;48.216;12.396;2023-05-20T06:03:44;18.60;61.80
70366;DHT22;57787;48.216;12.396;2023-05-20T06:06:14;18.50;62.30
70366;DHT22;57787;48.216;12.396;2023-05-20T06:08:41;18.60;62.80
70366;DHT22;57787;48.216;12.396;2023-05-20T06:11:08;18.50;62.30
70366;DHT22;57787;48.216;12.396;2023-05-20T06:13:35;18.50;62.70
70366;DHT22;57787;48.216;12.396;2023-05-20T06:18:44;18.40;63.30
70366;DHT22;57787;48.216;12.396;2023-05-20T06:21:11;18.40;62.80
70366;DHT22;57787;48.216;12.396;2023-05-20T06:23:39;18.10;63.00
70366;DHT22;57787;48.216;12.396;2023-05-20T06:26:06;17.80;64.70
70366;DHT22;57787;48.216;12.396;2023-05-20T06:28:33;17.80;64.10
70366;DHT22;57787;48.216;12.396;2023-05-20T06:31:00;17.80;65.50
70366;DHT22;57787;48.216;12.396;2023-05-20T06:33:36;17.90;66.10
70366;DHT22;57787;48.216;12.396;2023-05-20T06:36:07;18.00;64.90
70366;DHT22;57787;48.216;12.396;2023-05-20T06:38:34;18.00;65.30
70366;DHT22;57787;48.216;12.396;2023-05-20T06:41:03;17.90;64.00
70366;DHT22;57787;48.216;12.396;2023-05-20T06:46:05;17.50;64.40
70366;DHT22;57787;48.216;12.396;2023-05-20T06:51:08;17.40;65.80
70366;DHT22;57787;48.216;12.396;2023-05-20T06:53:36;17.40;66.20
70366;DHT22;57787;48.216;12.396;2023-05-20T06:56:05;17.40;65.50
70366;DHT22;57787;48.216;12.396;2023-05-20T06:58:33;17.40;66.90
70366;DHT22;57787;48.216;12.396;2023-05-20T07:01:01;17.40;67.50
70366;DHT22;57787;48.216;12.396;2023-05-20T07:03:27;17.80;67.00
70366;DHT22;57787;48.216;12.396;2023-05-20T07:05:54;18.30;65.80
70366;DHT22;57787;48.216;12.396;2023-05-20T07:08:21;18.60;65.50
70366;DHT22;57787;48.216;12.396;2023-05-20T07:11:05;18.80;64.40
70366;DHT22;57787;48.216;12.396;2023-05-20T07:13:32;19.00;63.20
70366;DHT22;57787;48.216;12.396;2023-05-20T07:16:00;19.10;62.60
70366;DHT22;57787;48.216;12.396;2023-05-20T07:18:27;19.00;62.00
70366;DHT22;57787;48.216;12.396;2023-05-20T07:20:54;19.10;62.10
70366;DHT22;57787;48.216;12.396;2023-05-20T07:23:24;19.20;61.90
70366;DHT22;57787;48.216;12.396;2023-05-20T07:25:54;19.40;62.40
70366;DHT22;57787;48.216;12.396;2023-05-20T07:28:21;19.60;62.60
70366;DHT22;57787;48.216;12.396;2023-05-20T07:33:39;19.70;60.10
70366;DHT22;57787;48.216;12.396;2023-05-20T07:36:06;19.80;60.50
70366;DHT22;57787;48.216;12.396;2023-05-20T07:38:36;19.80;60.90
70366;DHT22;57787;48.216;12.396;2023-05-20T07:41:15;20.00;60.70
70366;DHT22;57787;48.216;12.396;2023-05-20T07:43:42;20.30;60.60
70366;DHT22;57787;48.216;12.396;2023-05-20T07:48:51;20.50;56.90
70366;DHT22;57787;48.216;12.396;2023-05-20T07:56:49;21.00;58.60
70366;DHT22;57787;48.216;12.396;2023-05-20T07:59:16;20.90;55.80
70366;DHT22;57787;48.216;12.396;2023-05-20T08:01:43;20.80;55.00
70366;DHT22;57787;48.216;12.396;2023-05-20T08:04:13;20.60;55.10
70366;DHT22;57787;48.216;12.396;2023-05-20T08:06:40;20.30;55.20
70366;DHT22;57787;48.216;12.396;2023-05-20T08:09:09;20.20;57.10
70366;DHT22;57787;48.216;12.396;2023-05-20T08:14:12;20.40;57.80
70366;DHT22;57787;48.216;12.396;2023-05-20T08:16:49;20.40;58.10
70366;DHT22;57787;48.216;12.396;2023-05-20T08:19:20;20.70;56.80
70366;DHT22;57787;48.216;12.396;2023-05-20T08:21:47;21.00;58.80
70366;DHT22;57787;48.216;12.396;2023-05-20T08:24:15;21.10;55.40
70366;DHT22;57787;48.216;12.396;2023-05-20T08:26:41;21.30;55.90
70366;DHT22;57787;48.216;12.396;2023-05-20T08:29:08;21.60;57.00
70366;DHT22;57787;48.216;12.396;2023-05-20T08:34:10;21.70;54.70
70366;DHT22;57787;48.216;12.396;2023-05-20T08:36:38;21.80;54.40
70366;DHT22;57787;48.216;12.396;2023-05-20T08:39:06;21.80;54.20
70366;DHT22;57787;48.216;12.396;2023-05-20T08:44:08;22.00;54.40
70366;DHT22;57787;48.216;12.396;2023-05-20T08:46:46;22.20;52.70
70366;DHT22;57787;48.216;12.396;2023-05-20T08:49:14;22.30;53.00
70366;DHT22;57787;48.216;12.396;2023-05-20T08:51:58;22.30;52.00
70366;DHT22;57787;48.216;12.396;2023-05-20T08:54:37;22.60;53.00
70366;DHT22;57787;48.216;12.396;2023-05-20T08:57:06;22.70;51.30
70366;DHT22;57787;48.216;12.396;2023-05-20T08:59:36;22.80;51.10
70366;DHT22;57787;48.216;12.396;2023-05-20T09:02:03;22.60;50.20
70366;DHT22;57787;48.216;12.396;2023-05-20T09:07:11;22.50;50.00
70366;DHT22;57787;48.216;12.396;2023-05-20T09:09:42;22.60;51.90
70366;DHT22;57787;48.216;12.396;2023-05-20T09:15:01;22.80;50.20
70366;DHT22;57787;48.216;12.396;2023-05-20T09:17:30;23.00;50.10
70366;DHT22;57787;48.216;12.396;2023-05-20T09:19:57;23.10;50.20
70366;DHT22;57787;48.216;12.396;2023-05-20T09:22:24;23.10;49.00
70366;DHT22;57787;48.216;12.396;2023-05-20T09:24:51;23.10;49.40
70366;DHT22;57787;48.216;12.396;2023-05-20T09:27:20;23.30;50.10
70366;DHT22;57787;48.216;12.396;2023-05-20T09:32:30;23.40;50.50
70366;DHT22;57787;48.216;12.396;2023-05-20T09:34:58;23.30;48.50
70366;DHT22;57787;48.216;12.396;2023-05-20T09:37:27;23.30;51.10
70366;DHT22;57787;48.216;12.396;2023-05-20T09:40:02;23.40;48.70
70366;DHT22;57787;48.216;12.396;2023-05-20T09:42:34;23.40;49.00
70366;DHT22;57787;48.216;12.396;2023-05-20T09:45:07;23.40;50.50
70366;DHT22;57787;48.216;12.396;2023-05-20T09:47:37;23.30;48.90
70366;DHT22;57787;48.216;12.396;2023-05-20T09:50:07;23.10;50.10
70366;DHT22;57787;48.216;12.396;2023-05-20T09:52:36;22.80;50.30
70366;DHT22;57787;48.216;12.396;2023-05-20T09:57:55;22.80;51.90
70366;DHT22;57787;48.216;12.396;2023-05-20T10:00:24;22.90;51.90
70366;DHT22;57787;48.216;12.396;2023-05-20T10:02:52;22.80;50.80
70366;DHT22;57787;48.216;12.396;2023-05-20T10:05:35;22.80;51.90
70366;DHT22;57787;48.216;12.396;2023-05-20T10:10:55;23.10;54.20
70366;DHT22;57787;48.216;12.396;2023-05-20T10:21:25;23.50;50.60
70366;DHT22;57787;48.216;12.396;2023-05-20T10:23:53;23.60;51.30
70366;DHT22;57787;48.216;12.396;2023-05-20T10:26:20;23.70;50.90
70366;DHT22;57787;48.216;12.396;2023-05-20T10:28:48;23.60;51.10
70366;DHT22;57787;48.216;12.396;2023-05-20T10:31:28;23.90;50.80
70366;DHT22;57787;48.216;12.396;2023-05-20T10:33:55;24.00;48.90
70366;DHT22;57787;48.216;12.396;2023-05-20T10:36:27;24.10;49.10
70366;DHT22;57787;48.216;12.396;2023-05-20T10:38:58;24.00;48.70
70366;DHT22;57787;48.216;12.396;2023-05-20T10:41:27;24.10;48.60
70366;DHT22;57787;48.216;12.396;2023-05-20T10:44:00;23.90;48.20
70366;DHT22;57787;48.216;12.396;2023-05-20T10:46:32;23.90;47.60
70366;DHT22;57787;48.216;12.396;2023-05-20T10:52:02;24.20;48.50
70366;DHT22;57787;48.216;12.396;2023-05-20T10:54:34;24.50;49.80
70366;DHT22;57787;48.216;12.396;2023-05-20T10:57:09;24.80;46.40
70366;DHT22;57787;48.216;12.396;2023-05-20T10:59:39;25.10;47.60
70366;DHT22;57787;48.216;12.396;2023-05-20T11:02:09;25.30;47.10
70366;DHT22;57787;48.216;12.396;2023-05-20T11:04:37;25.30;44.80
70366;DHT22;57787;48.216;12.396;2023-05-20T11:07:05;25.40;45.20
70366;DHT22;57787;48.216;12.396;2023-05-20T11:09:33;25.30;44.90
70366;DHT22;57787;48.216;12.396;2023-05-20T11:12:01;25.40;46.50
70366;DHT22;57787;48.216;12.396;2023-05-20T11:14:34;25.40;44.10
70366;DHT22;57787;48.216;12.396;2023-05-20T11:17:10;25.30;44.10
70366;DHT22;57787;48.216;12.396;2023-05-20T11:19:40;25.30;44.20
70366;DHT22;57787;48.216;12.396;2023-05-20T11:22:09;25.30;44.30
70366;DHT22;57787;48.216;12.396;2023-05-20T11:27:18;25.00;44.70
70366;DHT22;57787;48.216;12.396;2023-05-20T11:29:45;24.90;44.90
70366;DHT22;57787;48.216;12.396;2023-05-20T11:32:15;24.80;44.20
70366;DHT22;57787;48.216;12.396;2023-05-20T11:34:44;24.70;44.80
70366;DHT22;57787;48.216;12.396;2023-05-20T11:37:12;24.60;45.10
70366;DHT22;57787;48.216;12.396;2023-05-20T11:39:41;24.70;44.70
70366;DHT22;57787;48.216;12.396;2023-05-20T11:44:50;24.50;45.20
70366;DHT22;57787;48.216;12.396;2023-05-20T11:47:23;24.50;45.80
70366;DHT22;57787;48.216;12.396;2023-05-20T11:52:40;24.80;45.40
70366;DHT22;57787;48.216;12.396;2023-05-20T11:55:13;24.80;44.70
70366;DHT22;57787;48.216;12.396;2023-05-20T11:57:42;24.80;45.00
70366;DHT22;57787;48.216;12.396;2023-05-20T12:00:09;24.80;45.80
70366;DHT22;57787;48.216;12.396;2023-05-20T12:02:36;24.90;45.10
70366;DHT22;57787;48.216;12.396;2023-05-20T12:05:03;24.80;43.50
70366;DHT22;57787;48.216;12.396;2023-05-20T12:07:32;24.70;43.90
70366;DHT22;57787;48.216;12.396;2023-05-20T12:09:59;24.60;45.00
70366;DHT22;57787;48.216;12.396;2023-05-20T12:12:27;24.60;45.40
70366;DHT22;57787;48.216;12.396;2023-05-20T12:14:53;24.60;46.10
70366;DHT22;57787;48.216;12.396;2023-05-20T12:17:20;24.60;45.30
70366;DHT22;57787;48.216;12.396;2023-05-20T12:19:47;24.50;46.50
70366;DHT22;57787;48.216;12.396;2023-05-20T12:22:14;24.60;44.30
70366;DHT22;57787;48.216;12.396;2023-05-20T12:24:41;24.60;43.40
70366;DHT22;57787;48.216;12.396;2023-05-20T12:27:08;24.40;44.00
70366;DHT22;57787;48.216;12.396;2023-05-20T12:29:35;24.40;43.60
70366;DHT22;57787;48.216;12.396;2023-05-20T12:32:02;24.40;42.90
70366;DHT22;57787;48.216;12.396;2023-05-20T12:34:29;24.40;43.70
70366;DHT22;57787;48.216;12.396;2023-05-20T12:36:59;24.30;43.20
70366;DHT22;57787;48.216;12.396;2023-05-20T12:39:26;24.40;44.20
70366;DHT22;57787;48.216;12.396;2023-05-20T12:41:53;24.50;44.40
70366;DHT22;57787;48.216;12.396;2023-05-20T12:44:20;24.60;44.80
70366;DHT22;57787;48.216;12.396;2023-05-20T12:46:46;24.80;44.50
70366;DHT22;57787;48.216;12.396;2023-05-20T12:49:13;24.80;44.60
70366;DHT22;57787;48.216;12.396;2023-05-20T12:51:41;24.80;44.90
70366;DHT22;57787;48.216;12.396;2023-05-20T12:54:08;24.80;45.70
70366;DHT22;57787;48.216;12.396;2023-05-20T12:56:37;25.00;45.80
70366;DHT22;57787;48.216;12.396;2023-05-20T12:59:05;25.00;46.50
70366;DHT22;57787;48.216;12.396;2023-05-20T13:01:32;25.10;45.10
70366;DHT22;57787;48.216;12.396;2023-05-20T13:04:00;25.30;46.50
70366;DHT22;57787;48.216;12.396;2023-05-20T13:06:27;25.30;45.40
70366;DHT22;57787;48.216;12.396;2023-05-20T13:08:55;25.30;44.90
70366;DHT22;57787;48.216;12.396;2023-05-20T13:11:22;25.10;44.40
70366;DHT22;57787;48.216;12.396;2023-05-20T13:13:50;25.20;46.50
70366;DHT22;57787;48.216;12.396;2023-05-20T13:16:16;25.30;45.80
70366;DHT22;57787;48.216;12.396;2023-05-20T13:18:43;25.30;43.00
70366;DHT22;57787;48.216;12.396;2023-05-20T13:21:10;25.50;41.50
70366;DHT22;57787;48.216;12.396;2023-05-20T13:23:37;25.60;43.60
70366;DHT22;57787;48.216;12.396;2023-05-20T13:26:06;25.80;42.70
70366;DHT22;57787;48.216;12.396;2023-05-20T13:28:32;25.80;42.30
70366;DHT22;57787;48.216;12.396;2023-05-20T13:31:03;25.90;42.70
70366;DHT22;57787;48.216;12.396;2023-05-20T13:33:33;25.90;42.40
70366;DHT22;57787;48.216;12.396;2023-05-20T13:36:00;25.70;42.00
70366;DHT22;57787;48.216;12.396;2023-05-20T13:38:27;25.40;43.00
70366;DHT22;57787;48.216;12.396;2023-05-20T13:40:56;25.40;43.50
70366;DHT22;57787;48.216;12.396;2023-05-20T13:43:25;25.40;42.60
70366;DHT22;57787;48.216;12.396;2023-05-20T13:45:55;25.40;44.80
70366;DHT22;57787;48.216;12.396;2023-05-20T13:48:23;25.50;42.90
70366;DHT22;57787;48.216;12.396;2023-05-20T13:50:50;25.50;43.80
70366;DHT22;57787;48.216;12.396;2023-05-20T13:53:23;25.50;44.20
70366;DHT22;57787;48.216;12.396;2023-05-20T13:55:53;25.60;42.50
70366;DHT22;57787;48.216;12.396;2023-05-20T13:58:22;25.40;42.70
70366;DHT22;57787;48.216;12.396;2023-05-20T14:00:48;25.40;42.90
70366;DHT22;57787;48.216;12.396;2023-05-20T14:03:16;25.30;42.70
70366;DHT22;57787;48.216;12.396;2023-05-20T14:05:44;25.30;43.90
70366;DHT22;57787;48.216;12.396;2023-05-20T14:08:12;25.30;43.60
70366;DHT22;57787;48.216;12.396;2023-05-20T14:10:39;25.30;42.70
70366;DHT22;57787;48.216;12.396;2023-05-20T14:13:07;25.30;44.20
70366;DHT22;57787;48.216;12.396;2023-05-20T14:15:37;25.20;43.00
70366;DHT22;57787;48.216;12.396;2023-05-20T14:18:06;25.10;43.30
70366;DHT22;57787;48.216;12.396;2023-05-20T14:20:34;25.00;43.20
70366;DHT22;57787;48.216;12.396;2023-05-20T14:23:01;25.00;43.90
70366;DHT22;57787;48.216;12.396;2023-05-20T14:25:29;24.90;43.20
70366;DHT22;57787;48.216;12.396;2023-05-20T14:27:56;24.80;43.60
70366;DHT22;57787;48.216;12.396;2023-05-20T14:30:22;24.70;43.90
70366;DHT22;57787;48.216;12.396;2023-05-20T14:32:50;24.70;44.90
70366;DHT22;57787;48.216;12.396;2023-05-20T14:35:18;24.80;45.20
70366;DHT22;57787;48.216;12.396;2023-05-20T14:37:45;24.80;45.00
70366;DHT22;57787;48.216;12.396;2023-05-20T14:40:14;24.80;43.70
70366;DHT22;57787;48.216;12.396;2023-05-20T14:42:42;24.70;44.10
70366;DHT22;57787;48.216;12.396;2023-05-20T14:45:10;24.60;44.00
70366;DHT22;57787;48.216;12.396;2023-05-20T14:47:37;24.60;44.30
70366;DHT22;57787;48.216;12.396;2023-05-20T14:50:06;24.50;44.30
70366;DHT22;57787;48.216;12.396;2023-05-20T14:52:33;24.40;43.90
70366;DHT22;57787;48.216;12.396;2023-05-20T14:55:02;24.50;45.00
70366;DHT22;57787;48.216;12.396;2023-05-20T14:57:32;24.30;45.70
70366;DHT22;57787;48.216;12.396;2023-05-20T15:00:02;24.20;45.00
70366;DHT22;57787;48.216;12.396;2023-05-20T15:02:31;24.20;45.40
70366;DHT22;57787;48.216;12.396;2023-05-20T15:04:59;24.10;46.30
70366;DHT22;57787;48.216;12.396;2023-05-20T15:07:27;24.10;46.50
70366;DHT22;57787;48.216;12.396;2023-05-20T15:09:54;24.10;46.60
70366;DHT22;57787;48.216;12.396;2023-05-20T15:12:21;24.10;46.80
70366;DHT22;57787;48.216;12.396;2023-05-20T15:14:49;24.20;47.10
70366;DHT22;57787;48.216;12.396;2023-05-20T15:17:16;24.20;46.90
70366;DHT22;57787;48.216;12.396;2023-05-20T15:19:43;24.10;46.90
70366;DHT22;57787;48.216;12.396;2023-05-20T15:22:10;24.20;47.10
70366;DHT22;57787;48.216;12.396;2023-05-20T15:24:38;24.20;47.60
70366;DHT22;57787;48.216;12.396;2023-05-20T15:27:05;24.20;46.70
70366;DHT22;57787;48.216;12.396;2023-05-20T15:29:32;24.30;48.00
70366;DHT22;57787;48.216;12.396;2023-05-20T15:31:59;24.30;48.10
70366;DHT22;57787;48.216;12.396;2023-05-20T15:34:25;24.30;48.20
70366;DHT22;57787;48.216;12.396;2023-05-20T15:36:52;24.30;47.30
70366;DHT22;57787;48.216;12.396;2023-05-20T15:39:19;24.30;46.30
70366;DHT22;57787;48.216;12.396;2023-05-20T15:41:47;24.30;46.90
70366;DHT22;57787;48.216;12.396;2023-05-20T15:44:16;24.20;46.20
70366;DHT22;57787;48.216;12.396;2023-05-20T15:46:44;24.00;47.90
70366;DHT22;57787;48.216;12.396;2023-05-20T15:49:12;24.10;47.80
70366;DHT22;57787;48.216;12.396;2023-05-20T15:51:39;24.00;47.10
70366;DHT22;57787;48.216;12.396;2023-05-20T15:54:21;24.00;48.20
70366;DHT22;57787;48.216;12.396;2023-05-20T15:56:47;23.80;47.60
70366;DHT22;57787;48.216;12.396;2023-05-20T15:59:14;23.70;49.10
70366;DHT22;57787;48.216;12.396;2023-05-20T16:01:42;23.80;49.50
70366;DHT22;57787;48.216;12.396;2023-05-20T16:04:09;23.80;49.40
70366;DHT22;57787;48.216;12.396;2023-05-20T16:06:36;23.80;48.80
70366;DHT22;57787;48.216;12.396;2023-05-20T16:09:03;23.70;49.50
70366;DHT22;57787;48.216;12.396;2023-05-20T16:11:30;23.70;49.60
70366;DHT22;57787;48.216;12.396;2023-05-20T16:13:59;23.60;49.40
70366;DHT22;57787;48.216;12.396;2023-05-20T16:16:27;23.60;49.80
70366;DHT22;57787;48.216;12.396;2023-05-20T16:18:54;23.60;49.80
70366;DHT22;57787;48.216;12.396;2023-05-20T16:21:24;23.60;50.40
70366;DHT22;57787;48.216;12.396;2023-05-20T16:23:53;23.50;51.50
70366;DHT22;57787;48.216;12.396;2023-05-20T16:26:20;23.50;50.40
70366;DHT22;57787;48.216;12.396;2023-05-20T16:28:50;23.40;50.80